Time;durP1;ratioP1;P1;durP2;ratioP2;P2;SDS_P1;SDS_P2;PMS_P1;PMS_P2;Temp;Humidity;BMP_temperature;BMP_pressure;BME280_temperature;BME280_humidity;BME280_pressure;Samples;Min_cycle;Max_cycle;Signal;HPM_P1;HPM_P2
2022/05/15 00:02:07;;;;;;;5.80;4.70;;;22.40;56.60;;;;;;5051431;28;20948;-59
2022/05/15 00:04:33;;;;;;;6.07;5.67;;;22.40;56.70;;;;;;5050952;28;20864;-58
2022/05/15 00:07:00;;;;;;;4.73;4.43;;;22.40;56.80;;;;;;5050713;28;20455;-58
2022/05/15 00:09:28;;;;;;;4.50;4.20;;;22.40;56.90;;;;;;5050417;28;20784;-59
2022/05/15 00:11:55;;;;;;;4.57;4.20;;;22.30;56.80;;;;;;5054506;28;20987;-54
2022/05/15 00:14:22;;;;;;;5.60;5.10;;;22.30;56.90;;;;;;5055195;28;20444;-58
2022/05/15 00:16:48;;;;;;;5.50;5.00;;;22.30;56.90;;;;;;5054625;28;20439;-55
2022/05/15 00:19:15;;;;;;;5.03;4.50;;;22.30;56.90;;;;;;5054584;28;20440;-52
2022/05/15 00:21:42;;;;;;;4.87;4.40;;;22.30;57.00;;;;;;5054505;28;20821;-55
2022/05/15 00:24:09;;;;;;;5.27;4.43;;;22.30;57.00;;;;;;5054734;28;20483;-53
2022/05/15 00:26:37;;;;;;;6.00;5.40;;;22.30;57.20;;;;;;5054434;28;20452;-56
2022/05/15 00:29:04;;;;;;;6.63;5.47;;;22.30;57.30;;;;;;5054154;28;20467;-56
2022/05/15 00:31:32;;;;;;;5.80;4.80;;;22.30;57.40;;;;;;5054370;28;20444;-53
2022/05/15 00:33:59;;;;;;;5.83;4.60;;;22.30;57.30;;;;;;5054429;28;20468;-54
2022/05/15 00:36:26;;;;;;;6.30;5.30;;;22.30;58.00;;;;;;5054439;28;20816;-53
2022/05/15 00:38:53;;;;;;;5.07;4.67;;;22.30;57.40;;;;;;5054036;28;20962;-55
2022/05/15 00:41:20;;;;;;;5.00;4.50;;;22.20;57.40;;;;;;5054552;28;20450;-52
2022/05/15 00:43:50;;;;;;;4.73;4.40;;;22.20;57.50;;;;;;5054165;28;20456;-55
2022/05/15 00:46:20;;;;;;;5.63;4.47;;;22.20;58.00;;;;;;5054207;28;20446;-57
2022/05/15 00:48:47;;;;;;;5.00;4.60;;;22.20;57.50;;;;;;5053993;28;20448;-56
2022/05/15 00:51:18;;;;;;;8.30;4.83;;;22.20;57.60;;;;;;5054388;28;20452;-55
2022/05/15 00:53:48;;;;;;;6.50;4.67;;;22.20;57.70;;;;;;5054022;28;20459;-53
2022/05/15 00:56:16;;;;;;;5.13;4.83;;;22.20;57.70;;;;;;5054097;28;20447;-54
2022/05/15 00:58:50;;;;;;;5.17;4.70;;;22.20;57.70;;;;;;5053621;28;20444;-54
2022/05/15 01:01:19;;;;;;;5.57;4.50;;;22.20;57.80;;;;;;5053909;28;20467;-53
2022/05/15 01:03:46;;;;;;;4.40;4.00;;;22.10;57.70;;;;;;5053815;28;20460;-56
2022/05/15 01:06:13;;;;;;;4.80;4.60;;;22.10;57.90;;;;;;5053902;28;20502;-55
2022/05/15 01:08:40;;;;;;;5.30;4.50;;;22.10;57.90;;;;;;5053618;28;20460;-50
2022/05/15 01:11:11;;;;;;;9.13;4.67;;;22.10;58.10;;;;;;5053312;28;20993;-54
2022/05/15 01:13:41;;;;;;;5.53;5.03;;;22.10;58.10;;;;;;5053725;28;20821;-53
2022/05/15 01:16:09;;;;;;;4.60;4.20;;;22.10;58.10;;;;;;5053407;28;20443;-56
2022/05/15 01:18:38;;;;;;;4.13;3.83;;;22.10;58.30;;;;;;5053429;28;20444;-53
2022/05/15 01:21:21;;;;;;;4.93;4.63;;;22.10;58.40;;;;;;5053196;28;20455;-53
2022/05/15 01:23:48;;;;;;;5.10;4.70;;;22.10;58.30;;;;;;5053485;28;20467;-57
2022/05/15 01:26:15;;;;;;;5.40;5.00;;;22.10;58.20;;;;;;5053276;28;20480;-52
2022/05/15 01:28:44;;;;;;;4.80;4.37;;;22.10;58.40;;;;;;5053432;28;20455;-55
2022/05/15 01:31:11;;;;;;;5.57;4.70;;;22.10;58.50;;;;;;5053384;28;20866;-56
2022/05/15 01:33:38;;;;;;;5.37;4.87;;;22.10;58.50;;;;;;5053257;28;20475;-56
2022/05/15 01:36:07;;;;;;;4.73;4.33;;;22.10;58.60;;;;;;5053073;28;20455;-55
2022/05/15 01:38:34;;;;;;;5.23;4.93;;;22.00;58.50;;;;;;5053198;28;20444;-54
2022/05/15 01:41:01;;;;;;;5.80;4.23;;;22.00;58.40;;;;;;5053461;28;20447;-53
2022/05/15 01:43:27;;;;;;;6.10;5.40;;;22.00;58.40;;;;;;5053256;28;20998;-53
2022/05/15 01:45:54;;;;;;;6.00;5.50;;;21.90;58.40;;;;;;5052863;28;20476;-55
2022/05/15 01:48:21;;;;;;;4.80;4.50;;;22.00;58.40;;;;;;5052805;28;20448;-54
2022/05/15 01:50:48;;;;;;;5.77;5.17;;;21.90;58.40;;;;;;5052646;28;20922;-54
2022/05/15 01:53:16;;;;;;;5.73;5.23;;;22.00;58.50;;;;;;5052831;28;20837;-56
2022/05/15 01:55:42;;;;;;;6.13;5.53;;;22.00;58.50;;;;;;5052902;28;20805;-54
2022/05/15 01:58:10;;;;;;;6.17;5.33;;;22.00;58.40;;;;;;5052595;28;20445;-53
2022/05/15 02:00:38;;;;;;;4.80;4.50;;;22.00;58.30;;;;;;5052717;28;20478;-55
2022/05/15 02:03:05;;;;;;;5.07;4.67;;;22.00;58.20;;;;;;5052533;28;20460;-56
2022/05/15 02:05:31;;;;;;;5.20;4.70;;;22.00;58.10;;;;;;5052545;28;20482;-54
2022/05/15 02:07:58;;;;;;;7.03;6.33;;;21.90;57.90;;;;;;5052225;28;20792;-53
2022/05/15 02:10:26;;;;;;;5.40;4.90;;;21.90;57.90;;;;;;5052598;28;20454;-57
2022/05/15 02:12:53;;;;;;;5.23;4.50;;;21.90;57.80;;;;;;5052453;28;20845;-54
2022/05/15 02:15:20;;;;;;;5.83;4.57;;;21.90;57.80;;;;;;5052453;28;20443;-53
2022/05/15 02:17:47;;;;;;;4.87;4.50;;;21.90;57.90;;;;;;5051847;28;20449;-57
2022/05/15 02:20:15;;;;;;;5.00;4.60;;;21.90;57.90;;;;;;5052443;28;20453;-54
2022/05/15 02:22:42;;;;;;;6.13;5.43;;;21.90;57.90;;;;;;5052292;28;20472;-53
2022/05/15 02:25:12;;;;;;;5.30;4.80;;;21.90;57.90;;;;;;5052207;28;20479;-55
2022/05/15 02:27:40;;;;;;;4.87;4.43;;;21.90;58.00;;;;;;5051905;28;20445;-52
2022/05/15 02:30:09;;;;;;;4.77;4.37;;;21.90;57.90;;;;;;5052360;28;20452;-55
2022/05/15 02:32:36;;;;;;;5.07;4.57;;;21.90;57.80;;;;;;5051614;28;20995;-53
2022/05/15 02:35:03;;;;;;;4.87;4.50;;;21.90;57.70;;;;;;5052152;28;20451;-56
2022/05/15 02:37:30;;;;;;;4.90;4.47;;;21.90;57.80;;;;;;5051707;28;20452;-55
2022/05/15 02:39:57;;;;;;;5.17;4.77;;;21.90;58.00;;;;;;5052086;28;20519;-54
2022/05/15 02:42:24;;;;;;;4.87;4.57;;;21.80;57.90;;;;;;5051917;28;20807;-53
2022/05/15 02:44:52;;;;;;;5.37;4.13;;;21.90;58.00;;;;;;5051885;28;20860;-53
2022/05/15 02:47:19;;;;;;;5.00;4.57;;;21.90;57.90;;;;;;5051532;28;20501;-55
2022/05/15 02:52:30;;;;;;;4.80;4.30;;;21.80;57.90;;;;;;5055659;28;20662;-55
2022/05/15 02:54:57;;;;;;;5.23;4.83;;;22.00;58.20;;;;;;5052359;28;20443;-55
2022/05/15 02:57:24;;;;;;;4.70;4.40;;;22.00;57.90;;;;;;5052009;28;20478;-59
2022/05/15 02:59:52;;;;;;;4.60;4.30;;;22.00;57.90;;;;;;5051810;28;20444;-49
2022/05/15 03:02:19;;;;;;;8.93;4.47;;;22.00;58.60;;;;;;5051533;28;20471;-54
2022/05/15 03:04:47;;;;;;;4.60;4.20;;;21.90;58.20;;;;;;5051544;28;20918;-53
2022/05/15 03:07:14;;;;;;;7.47;5.40;;;21.90;58.30;;;;;;5051517;28;20823;-50
2022/05/15 03:09:40;;;;;;;5.40;5.00;;;21.90;58.50;;;;;;5051555;28;20448;-54
2022/05/15 03:12:08;;;;;;;6.63;4.13;;;21.90;58.50;;;;;;5051177;28;20841;-54
2022/05/15 03:14:35;;;;;;;4.37;3.93;;;21.90;58.30;;;;;;5051685;28;20446;-52
2022/05/15 03:17:03;;;;;;;4.33;3.93;;;21.90;58.30;;;;;;5051434;28;20447;-55
2022/05/15 03:19:30;;;;;;;5.03;4.63;;;21.90;58.30;;;;;;5051715;28;20444;-51
2022/05/15 03:21:57;;;;;;;4.43;4.03;;;21.90;58.30;;;;;;5051201;28;20464;-53
2022/05/15 03:24:23;;;;;;;4.50;4.17;;;21.80;58.20;;;;;;5051478;28;20816;-52
2022/05/15 03:26:50;;;;;;;4.00;3.70;;;21.80;58.30;;;;;;5050992;28;20488;-52
2022/05/15 03:29:19;;;;;;;5.30;4.90;;;21.80;58.30;;;;;;5051063;28;20440;-53
2022/05/15 03:31:46;;;;;;;4.30;4.00;;;21.80;58.30;;;;;;5051433;28;20440;-52
2022/05/15 03:34:18;;;;;;;4.70;4.33;;;21.90;58.30;;;;;;5051255;28;21443;-51
2022/05/15 03:36:47;;;;;;;4.57;4.20;;;21.80;58.20;;;;;;5050820;28;20447;-54
2022/05/15 03:39:16;;;;;;;5.20;3.90;;;21.90;58.30;;;;;;5051185;28;20799;-52
2022/05/15 03:41:43;;;;;;;3.93;3.63;;;21.80;58.20;;;;;;5052177;28;20447;-52
2022/05/15 03:44:10;;;;;;;4.33;3.93;;;21.80;58.20;;;;;;5051537;28;20811;-52
2022/05/15 03:46:39;;;;;;;4.73;4.30;;;21.80;58.20;;;;;;5054489;28;20483;-57
2022/05/15 03:49:06;;;;;;;3.57;3.27;;;21.80;58.20;;;;;;5054823;28;20459;-56
2022/05/15 03:51:34;;;;;;;4.30;4.00;;;21.80;58.20;;;;;;5055229;28;20459;-51
2022/05/15 03:54:01;;;;;;;4.37;4.07;;;21.80;58.10;;;;;;5055268;28;20447;-53
2022/05/15 03:59:14;;;;;;;6.07;4.57;;;21.80;58.20;;;;;;5054913;28;20793;-52
2022/05/15 04:01:41;;;;;;;5.90;3.60;;;21.80;58.20;;;;;;5054668;28;20447;-52
2022/05/15 04:04:09;;;;;;;4.40;4.10;;;21.80;58.20;;;;;;5054746;28;20455;-55
2022/05/15 04:06:37;;;;;;;5.37;4.23;;;21.80;58.20;;;;;;5054555;28;20487;-55
2022/05/15 04:09:04;;;;;;;4.47;4.00;;;21.80;58.20;;;;;;5054255;28;20452;-55
2022/05/15 04:11:31;;;;;;;4.20;3.90;;;21.80;58.10;;;;;;5054515;28;20956;-51
2022/05/15 04:13:58;;;;;;;4.97;4.40;;;21.70;58.10;;;;;;5054833;28;20464;-53
2022/05/15 04:16:25;;;;;;;5.10;4.70;;;21.70;58.00;;;;;;5054472;28;20886;-51
2022/05/15 04:18:51;;;;;;;4.60;4.20;;;21.70;58.10;;;;;;5054427;28;20451;-56
2022/05/15 04:21:18;;;;;;;4.37;4.07;;;21.70;58.10;;;;;;5055197;28;20465;-56
2022/05/15 04:23:46;;;;;;;5.00;4.60;;;21.80;58.50;;;;;;5054651;28;20471;-52
2022/05/15 04:26:13;;;;;;;4.33;4.03;;;21.80;58.40;;;;;;5053860;28;20480;-54
2022/05/15 04:28:41;;;;;;;4.10;3.80;;;21.80;58.40;;;;;;5054379;28;20483;-58
2022/05/15 04:31:08;;;;;;;4.83;4.43;;;21.80;58.50;;;;;;5054230;28;20452;-55
2022/05/15 04:33:36;;;;;;;4.33;4.03;;;21.80;58.50;;;;;;5054254;28;20464;-53
2022/05/15 04:36:03;;;;;;;4.33;3.93;;;21.80;58.60;;;;;;5054107;28;20945;-53
2022/05/15 04:38:30;;;;;;;3.97;3.67;;;21.80;58.70;;;;;;5054105;28;20444;-49
2022/05/15 04:40:58;;;;;;;4.47;4.07;;;21.80;58.70;;;;;;5054264;28;20452;-49
2022/05/15 04:43:25;;;;;;;4.10;3.80;;;21.80;58.50;;;;;;5054019;28;20472;-50
2022/05/15 04:45:52;;;;;;;7.13;4.57;;;21.80;58.40;;;;;;5053966;28;20479;-49
2022/05/15 04:48:18;;;;;;;5.23;3.97;;;21.90;58.40;;;;;;5053854;28;20452;-50
2022/05/15 04:50:45;;;;;;;7.77;4.90;;;21.90;58.50;;;;;;5054260;28;20448;-55
2022/05/15 04:53:12;;;;;;;7.37;5.53;;;22.00;60.30;;;;;;5053984;28;20473;-58
2022/05/15 04:55:40;;;;;;;8.67;5.60;;;22.00;63.40;;;;;;5053472;28;20487;-54
2022/05/15 04:58:08;;;;;;;5.37;4.80;;;22.10;65.80;;;;;;5052589;28;20539;-56
2022/05/15 05:00:35;;;;;;;5.57;4.50;;;22.00;66.90;;;;;;5053373;28;20452;-49
2022/05/15 05:03:02;;;;;;;10.27;7.40;;;22.10;67.20;;;;;;5054935;28;20487;-49
2022/05/15 05:05:28;;;;;;;4.57;4.17;;;22.30;69.30;;;;;;5054170;28;20479;-51
2022/05/15 05:07:55;;;;;;;7.40;5.07;;;22.40;66.10;;;;;;5053874;28;20443;-55
2022/05/15 05:10:22;;;;;;;4.60;4.30;;;22.30;63.70;;;;;;5054012;28;20957;-51
2022/05/15 05:12:49;;;;;;;4.73;4.33;;;22.30;62.80;;;;;;5054124;28;20480;-51
2022/05/15 05:15:17;;;;;;;5.93;4.30;;;22.30;62.70;;;;;;5054101;28;20455;-51
2022/05/15 05:17:44;;;;;;;4.00;3.50;;;22.30;62.30;;;;;;5053795;28;20449;-52
2022/05/15 05:20:13;;;;;;;5.80;5.20;;;22.30;62.00;;;;;;5053866;28;20456;-50
2022/05/15 05:22:40;;;;;;;4.70;3.60;;;22.30;61.60;;;;;;5053841;28;20468;-54
2022/05/15 05:25:08;;;;;;;3.80;3.60;;;22.30;61.50;;;;;;5053902;28;20448;-51
2022/05/15 05:27:36;;;;;;;4.87;3.67;;;22.30;61.00;;;;;;5053662;28;20483;-50
2022/05/15 05:30:04;;;;;;;4.97;4.00;;;22.30;61.00;;;;;;5053523;28;20448;-55
2022/05/15 05:32:32;;;;;;;6.60;4.97;;;22.30;60.70;;;;;;5053356;28;21004;-50
2022/05/15 05:34:59;;;;;;;4.33;4.03;;;22.30;60.40;;;;;;5053680;28;20451;-50
2022/05/15 05:37:26;;;;;;;4.83;4.30;;;22.30;60.20;;;;;;5053321;28;20447;-53
2022/05/15 05:39:53;;;;;;;4.10;3.70;;;22.30;60.20;;;;;;5053446;28;20454;-50
2022/05/15 05:42:19;;;;;;;4.27;4.07;;;22.30;60.20;;;;;;5053455;28;20558;-51
2022/05/15 05:44:46;;;;;;;3.97;3.63;;;22.30;59.90;;;;;;5053099;28;20451;-54
2022/05/15 05:47:13;;;;;;;4.30;3.87;;;22.20;59.70;;;;;;5052876;28;20475;-50
2022/05/15 05:49:44;;;;;;;2.80;2.70;;;22.20;59.80;;;;;;5053405;28;20448;-50
2022/05/15 05:52:10;;;;;;;4.47;4.17;;;22.20;59.50;;;;;;5053211;28;20989;-54
2022/05/15 05:54:37;;;;;;;3.60;3.40;;;22.30;59.60;;;;;;5053532;28;20452;-50
2022/05/15 05:57:04;;;;;;;4.17;3.87;;;22.30;59.40;;;;;;5053065;28;20934;-52
2022/05/15 05:59:31;;;;;;;3.63;3.43;;;22.20;59.30;;;;;;5053177;28;20444;-50
2022/05/15 06:01:58;;;;;;;4.13;3.83;;;22.20;59.40;;;;;;5051621;28;20472;-55
2022/05/15 06:04:42;;;;;;;4.13;3.73;;;22.20;59.70;;;;;;5058011;28;21010;-53
2022/05/15 06:07:13;;;;;;;3.97;3.67;;;22.30;60.10;;;;;;5051935;28;21002;-57
2022/05/15 06:09:42;;;;;;;4.20;3.80;;;22.20;60.50;;;;;;5052330;28;20468;-52
2022/05/15 06:12:10;;;;;;;3.67;3.30;;;22.10;61.20;;;;;;5052292;28;20538;-56
2022/05/15 06:14:37;;;;;;;4.73;4.07;;;22.10;60.90;;;;;;5052283;28;20449;-56
2022/05/15 06:17:05;;;;;;;6.03;3.23;;;22.10;61.10;;;;;;5051752;28;20463;-52
2022/05/15 06:19:32;;;;;;;3.37;3.17;;;22.10;61.00;;;;;;5052364;28;20444;-55
2022/05/15 06:21:59;;;;;;;7.80;4.07;;;22.10;61.00;;;;;;5052209;28;20465;-52
2022/05/15 06:24:27;;;;;;;4.27;3.17;;;22.20;61.10;;;;;;5051952;28;20453;-54
2022/05/15 06:26:54;;;;;;;3.50;3.30;;;22.20;61.10;;;;;;5052113;28;20484;-55
2022/05/15 06:29:21;;;;;;;4.37;4.07;;;22.20;61.10;;;;;;5051904;28;20474;-52
2022/05/15 06:31:48;;;;;;;3.80;3.50;;;22.20;61.10;;;;;;5052342;28;20450;-49
2022/05/15 06:34:15;;;;;;;3.43;3.13;;;22.20;61.10;;;;;;5051856;28;20452;-50
2022/05/15 06:36:42;;;;;;;3.17;2.97;;;22.20;61.10;;;;;;5052383;28;20447;-52
2022/05/15 06:39:08;;;;;;;3.20;3.03;;;22.20;61.40;;;;;;5053137;28;20444;-52
2022/05/15 06:41:37;;;;;;;4.07;3.77;;;22.30;61.40;;;;;;5052106;28;20816;-51
2022/05/15 06:44:05;;;;;;;3.47;3.20;;;22.30;61.20;;;;;;5051950;28;20479;-58
2022/05/15 06:46:32;;;;;;;3.80;3.43;;;22.30;61.60;;;;;;5051573;28;20867;-55
2022/05/15 06:48:59;;;;;;;5.47;3.80;;;22.30;61.50;;;;;;5052155;28;20448;-54
2022/05/15 06:51:28;;;;;;;3.97;3.10;;;22.30;61.80;;;;;;5051969;28;20626;-54
2022/05/15 06:53:55;;;;;;;3.77;3.47;;;22.30;61.30;;;;;;5051587;28;20933;-52
2022/05/15 06:59:07;;;;;;;6.37;4.40;;;22.30;60.70;;;;;;5051861;28;20860;-55
2022/05/15 07:01:34;;;;;;;3.63;3.33;;;22.30;60.50;;;;;;5051748;28;20456;-53
2022/05/15 07:04:01;;;;;;;3.87;3.37;;;22.30;60.60;;;;;;5051620;28;20452;-54
2022/05/15 07:06:28;;;;;;;3.70;3.40;;;22.30;60.60;;;;;;5051453;28;20564;-53
2022/05/15 07:08:55;;;;;;;4.10;3.67;;;22.30;60.60;;;;;;5051880;28;20450;-54
2022/05/15 07:11:21;;;;;;;4.13;3.83;;;22.40;60.90;;;;;;5041104;28;20996;-52
2022/05/15 07:13:48;;;;;;;3.23;3.07;;;22.40;61.00;;;;;;5051220;28;20480;-57
2022/05/15 07:16:17;;;;;;;3.60;3.30;;;22.40;60.90;;;;;;5051316;28;20444;-53
2022/05/15 07:18:43;;;;;;;3.27;2.93;;;22.40;61.00;;;;;;5051734;28;20814;-52
2022/05/15 07:21:10;;;;;;;3.23;2.93;;;22.50;61.40;;;;;;5055905;28;20440;-56
2022/05/15 07:23:37;;;;;;;2.97;2.87;;;22.50;61.00;;;;;;5055068;28;20468;-52
2022/05/15 07:26:04;;;;;;;3.83;3.00;;;22.50;60.80;;;;;;5055218;28;20478;-61
2022/05/15 07:28:31;;;;;;;4.23;2.97;;;22.50;62.00;;;;;;5055230;28;20455;-58
2022/05/15 07:30:58;;;;;;;5.10;3.50;;;22.60;63.50;;;;;;5055389;28;20448;-61
2022/05/15 07:33:28;;;;;;;4.33;3.93;;;22.70;60.50;;;;;;5055142;28;20497;-56
2022/05/15 07:35:55;;;;;;;3.67;3.30;;;22.70;62.00;;;;;;5055227;28;20444;-58
2022/05/15 07:38:23;;;;;;;5.73;3.33;;;22.60;60.70;;;;;;5055284;28;20448;-52
2022/05/15 07:40:52;;;;;;;3.00;2.80;;;22.70;61.40;;;;;;5055265;28;20447;-59
2022/05/15 07:43:18;;;;;;;4.03;3.70;;;22.70;62.00;;;;;;5055291;28;20464;-53
2022/05/15 07:45:45;;;;;;;3.50;3.13;;;22.80;60.50;;;;;;5035214;28;20819;-50
2022/05/15 07:48:12;;;;;;;4.93;3.13;;;22.80;60.10;;;;;;5035122;28;20485;-51
2022/05/15 07:50:40;;;;;;;4.37;3.97;;;22.70;61.00;;;;;;5035637;28;20519;-51
2022/05/15 07:53:07;;;;;;;8.93;4.20;;;22.70;63.00;;;;;;5035170;28;20468;-54
2022/05/15 07:55:34;;;;;;;3.42;3.13;;;22.80;60.90;;;;;;5053173;28;20450;-53
2022/05/15 07:58:01;;;;;;;4.33;3.30;;;22.80;60.70;;;;;;5054831;28;20618;-59
2022/05/15 08:00:27;;;;;;;3.50;3.20;;;22.80;60.70;;;;;;5055181;28;20722;-56
2022/05/15 08:03:02;;;;;;;3.73;3.40;;;22.80;60.00;;;;;;5054782;28;20468;-58
2022/05/15 08:08:15;;;;;;;3.17;2.90;;;22.70;59.70;;;;;;5054767;28;20560;-58
2022/05/15 08:10:45;;;;;;;3.10;2.90;;;22.80;59.60;;;;;;5054900;28;20458;-54
2022/05/15 08:13:14;;;;;;;4.88;3.40;;;22.80;59.10;;;;;;5053596;28;20526;-54
2022/05/15 08:15:42;;;;;;;4.20;3.50;;;22.80;59.40;;;;;;5054310;28;20197;-60
2022/05/15 08:23:44;;;;;;;5.40;3.20;;;22.90;59.00;;;;;;5054309;28;20924;-53
2022/05/15 08:26:11;;;;;;;3.30;3.00;;;22.90;58.90;;;;;;5054077;28;20205;-59
2022/05/15 08:28:39;;;;;;;6.73;3.50;;;22.90;59.00;;;;;;5054461;28;20826;-57
2022/05/15 08:31:08;;;;;;;3.20;2.90;;;22.90;59.10;;;;;;5053226;28;20472;-54
2022/05/15 08:33:35;;;;;;;4.37;3.67;;;22.90;59.20;;;;;;5053913;28;20529;-58
2022/05/15 08:36:03;;;;;;;3.10;2.87;;;22.90;58.80;;;;;;5054394;28;20440;-57
2022/05/15 08:38:31;;;;;;;3.60;3.07;;;23.00;58.60;;;;;;5054154;28;20450;-57
2022/05/15 08:41:03;;;;;;;3.87;3.00;;;23.00;58.20;;;;;;5054128;28;20818;-55
2022/05/15 08:43:44;;;;;;;6.33;3.60;;;23.00;57.50;;;;;;5054293;28;20472;-54
2022/05/15 08:46:47;;;;;;;8.23;4.80;;;22.90;57.10;;;;;;5054386;28;20930;-57
2022/05/15 08:49:21;;;;;;;3.78;3.35;;;22.90;56.30;;;;;;5031570;28;20848;-51
2022/05/15 08:51:56;;;;;;;5.83;3.80;;;22.90;56.20;;;;;;5053619;28;20204;-58
2022/05/15 08:54:23;;;;;;;4.43;3.97;;;23.10;56.60;;;;;;5054167;28;20443;-63
2022/05/15 08:56:52;;;;;;;3.70;3.40;;;23.10;56.60;;;;;;5053676;28;20442;-59
2022/05/15 08:59:25;;;;;;;4.50;3.90;;;23.10;56.40;;;;;;5053646;28;20435;-58
2022/05/15 09:01:54;;;;;;;3.93;3.50;;;23.10;56.70;;;;;;5054028;28;20413;-59
2022/05/15 09:04:22;;;;;;;4.07;3.07;;;23.10;55.80;;;;;;5054065;28;20505;-58
2022/05/15 09:07:00;;;;;;;6.13;3.73;;;23.10;55.40;;;;;;5053788;28;20490;-60
2022/05/15 09:09:42;;;;;;;3.50;3.20;;;23.10;55.60;;;;;;5054262;28;20509;-62
2022/05/15 09:12:17;;;;;;;4.35;3.75;;;23.00;55.50;;;;;;5052891;28;20802;-61
2022/05/15 09:14:59;;;;;;;3.90;3.60;;;23.00;55.00;;;;;;5053996;28;20201;-58
2022/05/15 09:17:32;;;;;;;4.87;4.57;;;23.00;55.20;;;;;;5054030;28;20895;-61
2022/05/15 09:20:03;;;;;;;4.73;3.93;;;23.00;55.00;;;;;;5053689;28;20448;-61
2022/05/15 09:22:34;;;;;;;8.90;5.30;;;23.00;54.90;;;;;;5053256;28;20514;-63
2022/05/15 09:25:06;;;;;;;6.20;4.50;;;23.00;55.20;;;;;;5053025;28;20449;-59
2022/05/15 09:27:35;;;;;;;8.57;4.77;;;23.10;55.10;;;;;;5053035;28;20480;-58
2022/05/15 09:30:09;;;;;;;5.50;4.53;;;23.10;54.70;;;;;;5053192;28;20447;-57
2022/05/15 09:32:42;;;;;;;5.63;4.87;;;23.10;54.90;;;;;;5053084;28;20463;-55
2022/05/15 09:35:27;;;;;;;5.43;4.93;;;23.10;54.80;;;;;;5053106;28;20439;-57
2022/05/15 09:43:30;;;;;;;4.25;3.20;;;23.10;55.20;;;;;;5052004;28;20498;-65
2022/05/15 09:43:32;;;;;;;3.73;3.50;;;23.20;55.50;;;;;;5052943;28;20226;-59
2022/05/15 09:46:06;;;;;;;6.20;3.93;;;23.20;55.50;;;;;;5052104;28;20830;-64
2022/05/15 09:48:36;;;;;;;3.40;2.97;;;23.20;55.10;;;;;;5051702;28;20829;-62
2022/05/15 09:51:08;;;;;;;3.37;3.17;;;23.20;55.60;;;;;;5052906;28;20217;-62
2022/05/15 09:53:41;;;;;;;3.20;3.00;;;23.40;55.60;;;;;;5052622;28;20468;-62
2022/05/15 09:56:10;;;;;;;3.40;3.20;;;23.30;55.10;;;;;;5052173;28;20448;-62
2022/05/15 09:58:46;;;;;;;3.50;3.20;;;23.40;55.30;;;;;;5052340;28;20444;-63
2022/05/15 10:01:25;;;;;;;3.07;2.83;;;23.30;55.30;;;;;;5052598;28;20466;-63
2022/05/15 10:03:55;;;;;;;2.93;2.70;;;23.20;55.40;;;;;;5052551;28;20463;-59
2022/05/15 10:06:24;;;;;;;3.20;2.90;;;23.30;55.50;;;;;;5052471;28;20440;-62
2022/05/15 10:09:13;;;;;;;4.40;4.10;;;23.30;55.40;;;;;;5052388;28;20483;-62
2022/05/15 10:11:43;;;;;;;3.23;2.93;;;23.20;54.90;;;;;;5042930;28;20452;-59
2022/05/15 10:14:34;;;;;;;3.33;2.90;;;23.30;55.00;;;;;;5052253;28;20463;-60
2022/05/15 10:17:02;;;;;;;2.63;2.43;;;23.20;54.90;;;;;;5051956;28;20798;-55
2022/05/15 10:19:40;;;;;;;3.50;3.20;;;23.30;54.80;;;;;;5052173;28;20549;-52
2022/05/15 10:22:28;;;;;;;3.70;3.33;;;23.40;55.00;;;;;;5052011;28;20222;-51
2022/05/15 10:25:02;;;;;;;3.23;2.80;;;23.40;54.20;;;;;;5051546;28;20445;-58
2022/05/15 10:27:31;;;;;;;3.30;3.10;;;23.40;54.50;;;;;;5048880;28;20483;-59
2022/05/15 10:30:04;;;;;;;3.97;3.30;;;23.30;54.60;;;;;;5051783;28;20440;-59
2022/05/15 10:32:37;;;;;;;3.40;3.20;;;23.30;54.60;;;;;;5051605;28;21001;-56
2022/05/15 10:35:04;;;;;;;3.47;3.17;;;23.30;54.70;;;;;;5052404;28;20448;-58
2022/05/15 10:37:50;;;;;;;4.17;3.87;;;23.20;54.90;;;;;;5051702;28;20440;-57
2022/05/15 10:40:30;;;;;;;6.20;3.53;;;23.20;54.60;;;;;;5052079;28;20448;-58
2022/05/15 10:43:08;;;;;;;3.40;2.70;;;23.20;54.50;;;;;;5051878;28;20541;-57
2022/05/15 10:45:44;;;;;;;4.30;2.77;;;23.20;54.50;;;;;;5051760;28;20455;-58
2022/05/15 10:48:32;;;;;;;3.50;3.20;;;23.30;54.40;;;;;;5051625;28;20472;-58
2022/05/15 10:51:06;;;;;;;7.10;3.40;;;23.30;54.30;;;;;;5051676;28;20444;-57
2022/05/15 10:59:41;;;;;;;6.10;2.87;;;23.30;54.60;;;;;;5051746;28;20422;-57
2022/05/15 11:02:39;;;;;;;2.63;2.53;;;23.30;54.50;;;;;;5051638;28;20476;-58
2022/05/15 11:05:12;;;;;;;4.70;4.00;;;23.30;54.70;;;;;;5051512;28;20849;-58
2022/05/15 11:07:45;;;;;;;2.60;2.40;;;23.40;54.50;;;;;;5051270;28;20487;-55
2022/05/15 11:10:20;;;;;;;4.83;2.63;;;23.30;54.50;;;;;;5051761;28;20451;-57
2022/05/15 11:12:54;;;;;;;2.30;2.20;;;23.30;54.30;;;;;;5051335;28;21106;-57
2022/05/15 11:15:46;;;;;;;2.40;2.30;;;23.40;54.50;;;;;;5051442;28;20934;-58
2022/05/15 11:18:39;;;;;;;3.00;2.80;;;23.40;54.40;;;;;;5046323;28;20444;-58
2022/05/15 11:21:10;;;;;;;3.33;2.33;;;23.40;54.40;;;;;;5051297;28;20444;-57
2022/05/15 11:23:42;;;;;;;3.17;2.70;;;23.40;54.30;;;;;;5051268;28;20464;-58
2022/05/15 11:26:15;;;;;;;2.43;2.23;;;23.40;54.40;;;;;;5051347;28;20472;-58
2022/05/15 11:28:45;;;;;;;2.70;2.53;;;23.40;54.20;;;;;;5051153;28;20476;-57
2022/05/15 11:31:15;;;;;;;2.63;2.53;;;23.40;54.90;;;;;;5051247;28;20814;-57
2022/05/15 11:33:55;;;;;;;3.63;2.10;;;23.40;54.30;;;;;;5051199;28;20468;-58
2022/05/15 11:36:36;;;;;;;3.43;3.10;;;23.40;54.40;;;;;;5051124;28;20444;-57
2022/05/15 11:39:24;;;;;;;2.33;2.23;;;23.40;54.60;;;;;;5051184;28;20448;-58
2022/05/15 11:42:26;;;;;;;1.93;1.83;;;23.40;54.60;;;;;;5051394;28;20459;-57
2022/05/15 11:44:53;;;;;;;2.67;2.47;;;23.40;54.50;;;;;;5029332;28;20966;-55
2022/05/15 11:47:26;;;;;;;3.00;2.80;;;23.40;54.50;;;;;;5050709;28;20444;-55
2022/05/15 11:50:05;;;;;;;2.53;2.43;;;23.40;54.40;;;;;;5050988;28;20452;-56
2022/05/15 11:52:35;;;;;;;2.50;2.40;;;23.40;54.30;;;;;;5050914;28;20500;-59
2022/05/15 11:55:37;;;;;;;2.30;2.13;;;23.40;54.50;;;;;;5051100;28;20984;-58
2022/05/15 11:58:32;;;;;;;2.40;2.30;;;23.40;54.60;;;;;;5051070;28;20450;-59
2022/05/15 12:01:07;;;;;;;4.50;2.00;;;23.40;54.40;;;;;;5050976;28;20779;-58
2022/05/15 12:03:52;;;;;;;2.47;2.27;;;23.40;54.40;;;;;;5050877;28;20464;-59
2022/05/15 12:06:25;;;;;;;2.40;2.30;;;23.50;54.30;;;;;;5051929;28;20451;-55
2022/05/15 12:09:14;;;;;;;2.90;2.40;;;23.50;54.30;;;;;;5054697;28;20487;-57
2022/05/15 12:11:41;;;;;;;2.47;2.20;;;23.50;54.20;;;;;;5054159;28;20440;-59
2022/05/15 12:14:31;;;;;;;1.80;1.80;;;23.50;54.40;;;;;;5074957;22;20498;-63
2022/05/15 12:17:01;;;;;;;2.60;2.40;;;23.50;54.50;;;;;;5042005;28;20537;-64
2022/05/15 12:19:30;;;;;;;2.30;2.10;;;23.50;54.40;;;;;;5054542;28;20448;-63
2022/05/15 12:22:05;;;;;;;2.23;2.00;;;23.50;54.30;;;;;;5054643;28;20444;-63
2022/05/15 12:24:35;;;;;;;2.63;2.43;;;23.50;54.40;;;;;;5054393;28;20475;-64
2022/05/15 12:27:13;;;;;;;3.87;3.57;;;23.50;54.50;;;;;;5054047;28;20440;-61
2022/05/15 12:30:03;;;;;;;2.60;2.37;;;23.50;54.40;;;;;;5054317;28;20487;-63
2022/05/15 12:32:35;;;;;;;2.30;2.10;;;23.50;54.30;;;;;;5054337;28;20440;-63
2022/05/15 12:35:05;;;;;;;2.33;2.23;;;23.60;54.10;;;;;;5054457;28;20460;-63
2022/05/15 12:37:52;;;;;;;3.50;2.27;;;23.60;54.10;;;;;;5053820;28;20447;-63
2022/05/15 12:40:25;;;;;;;2.33;2.23;;;23.60;54.00;;;;;;5054093;28;20440;-63
2022/05/15 12:42:52;;;;;;;2.27;2.17;;;23.70;53.70;;;;;;5054087;28;20440;-65
2022/05/15 12:45:21;;;;;;;2.30;2.20;;;23.70;53.80;;;;;;5053995;28;20804;-64
2022/05/15 12:47:59;;;;;;;2.20;2.00;;;23.70;53.70;;;;;;5053660;28;20480;-63
2022/05/15 12:50:26;;;;;;;2.50;2.30;;;23.70;53.50;;;;;;5054044;28;20851;-63
2022/05/15 12:52:55;;;;;;;2.17;2.07;;;23.80;53.50;;;;;;5053759;28;20440;-65
2022/05/15 12:55:25;;;;;;;2.67;2.50;;;23.80;53.60;;;;;;5053745;28;20447;-65
2022/05/15 12:57:54;;;;;;;3.27;2.57;;;23.70;53.50;;;;;;5053642;28;20437;-64
2022/05/15 13:00:27;;;;;;;2.47;2.23;;;23.70;53.50;;;;;;5053868;28;20463;-65
2022/05/15 13:02:59;;;;;;;2.20;2.00;;;23.80;53.30;;;;;;5053660;28;20448;-65
2022/05/15 13:05:29;;;;;;;2.77;2.13;;;23.80;53.20;;;;;;5053787;28;20754;-65
2022/05/15 13:07:59;;;;;;;2.20;2.10;;;23.80;53.20;;;;;;5053408;28;20841;-66
2022/05/15 13:10:27;;;;;;;2.23;2.13;;;23.90;53.20;;;;;;5053654;28;20448;-65
2022/05/15 13:12:57;;;;;;;2.33;2.13;;;23.90;53.10;;;;;;5053463;28;20445;-64
2022/05/15 13:15:26;;;;;;;2.17;2.07;;;23.90;53.20;;;;;;5053724;28;20440;-65
2022/05/15 13:17:55;;;;;;;2.03;1.93;;;23.90;53.30;;;;;;5053025;28;20447;-64
2022/05/15 13:20:24;;;;;;;2.60;2.33;;;23.90;53.20;;;;;;5053348;28;20547;-64
2022/05/15 13:22:52;;;;;;;2.10;2.00;;;23.80;53.10;;;;;;5053357;28;20452;-65
2022/05/15 13:25:25;;;;;;;3.10;2.80;;;23.80;53.10;;;;;;5053348;28;20447;-65
2022/05/15 13:27:52;;;;;;;1.80;1.70;;;23.90;52.80;;;;;;5053209;28;20443;-64
2022/05/15 13:30:21;;;;;;;2.27;2.07;;;23.90;52.70;;;;;;5053171;28;20447;-65